Time;durP1;ratioP1;P1;durP2;ratioP2;P2;SDS_P1;SDS_P2;PMS_P1;PMS_P2;Temp;Humidity;BMP_temperature;BMP_pressure;BME280_temperature;BME280_humidity;BME280_pressure;Samples;Min_cycle;Max_cycle;Signal;HPM_P1;HPM_P2
2022/06/19 00:00:34;;;;;;;21.30;5.70;;;27.90;20.00;;;;;;5044063;28;20838;-71
2022/06/19 00:03:03;;;;;;;27.43;6.63;;;28.00;19.70;;;;;;5037065;28;20497;-71
2022/06/19 00:05:30;;;;;;;28.80;6.30;;;27.80;20.00;;;;;;5043913;28;20431;-71
2022/06/19 00:07:56;;;;;;;24.00;6.23;;;27.80;20.20;;;;;;5037488;28;20829;-71
2022/06/19 00:10:22;;;;;;;26.50;6.30;;;27.80;19.90;;;;;;5046981;28;20457;-71
2022/06/19 00:12:48;;;;;;;21.63;5.63;;;27.70;20.30;;;;;;5045169;28;20402;-71
2022/06/19 00:15:13;;;;;;;31.57;6.13;;;27.90;20.00;;;;;;5051375;28;20995;-71
2022/06/19 00:17:39;;;;;;;19.30;5.53;;;27.90;19.70;;;;;;5043487;28;20184;-71
2022/06/19 00:20:06;;;;;;;23.53;5.57;;;27.80;20.10;;;;;;5052682;28;20179;-71
2022/06/19 00:22:31;;;;;;;24.37;5.67;;;27.50;20.30;;;;;;5053311;28;20258;-71
2022/06/19 00:24:57;;;;;;;20.37;5.60;;;27.60;19.90;;;;;;5051781;28;20533;-70
2022/06/19 00:27:23;;;;;;;31.03;5.80;;;27.80;20.00;;;;;;5041514;28;20218;-70
2022/06/19 00:29:49;;;;;;;26.10;6.60;;;27.70;19.80;;;;;;5050417;28;20229;-69
2022/06/19 00:32:14;;;;;;;20.60;5.50;;;27.90;19.90;;;;;;5044770;28;20513;-71
2022/06/19 00:34:40;;;;;;;34.63;5.93;;;27.70;19.80;;;;;;5045969;28;20589;-71
2022/06/19 00:37:06;;;;;;;27.43;5.97;;;27.70;20.00;;;;;;5043038;28;20199;-71
2022/06/19 00:39:39;;;;;;;27.43;6.00;;;27.60;19.80;;;;;;5044678;28;20530;-71
2022/06/19 00:42:06;;;;;;;23.20;5.40;;;27.80;19.50;;;;;;5052597;28;20917;-71
2022/06/19 00:44:32;;;;;;;34.70;7.33;;;27.60;19.50;;;;;;5043283;28;20422;-71
2022/06/19 00:47:07;;;;;;;23.10;6.00;;;27.40;20.10;;;;;;5050239;28;20606;-70
2022/06/19 00:49:38;;;;;;;16.83;5.90;;;27.40;20.10;;;;;;5043181;28;20179;-71
2022/06/19 00:52:16;;;;;;;26.90;6.37;;;27.30;20.40;;;;;;5051119;28;20432;-70
2022/06/19 00:55:10;;;;;;;29.20;6.23;;;27.30;20.10;;;;;;5041695;28;20465;-70
2022/06/19 00:57:40;;;;;;;52.30;7.40;;;27.30;20.10;;;;;;5050189;28;21443;-71
2022/06/19 01:00:13;;;;;;;26.27;6.53;;;27.50;19.50;;;;;;5048349;28;20430;-70
2022/06/19 01:02:40;;;;;;;26.13;6.90;;;27.80;19.50;;;;;;5048929;28;20468;-71
2022/06/19 01:05:07;;;;;;;27.00;6.50;;;27.80;18.90;;;;;;5050283;28;20472;-72
2022/06/19 01:07:33;;;;;;;22.50;6.63;;;27.70;19.00;;;;;;5046656;28;20458;-73
2022/06/19 01:09:58;;;;;;;24.90;6.00;;;27.50;19.40;;;;;;5048211;28;20433;-73
2022/06/19 01:12:25;;;;;;;29.13;5.73;;;27.90;18.70;;;;;;5044754;28;20489;-73
2022/06/19 01:14:56;;;;;;;24.17;6.03;;;28.10;18.10;;;;;;5051289;28;20211;-71
2022/06/19 01:17:22;;;;;;;25.77;6.43;;;28.10;18.00;;;;;;5043804;28;20458;-71
2022/06/19 01:19:48;;;;;;;36.13;6.70;;;27.80;18.80;;;;;;5049717;28;20470;-70
2022/06/19 01:22:50;;;;;;;23.63;6.63;;;27.40;19.90;;;;;;5044923;28;20860;-70
2022/06/19 01:25:22;;;;;;;24.63;5.53;;;28.00;20.40;;;;;;5051327;28;20174;-71
2022/06/19 01:30:35;;;;;;;21.30;5.70;;;28.40;19.30;;;;;;5039291;28;20508;-72
2022/06/19 01:33:05;;;;;;;28.53;6.47;;;28.40;20.60;;;;;;5042279;28;20910;-71
2022/06/19 01:35:35;;;;;;;30.17;5.67;;;28.40;19.90;;;;;;5051627;28;20415;-71
2022/06/19 01:38:05;;;;;;;25.33;5.87;;;28.70;19.40;;;;;;5043152;28;20433;-71
2022/06/19 01:40:33;;;;;;;24.20;6.23;;;28.60;20.00;;;;;;5050683;28;20822;-71
2022/06/19 01:42:59;;;;;;;23.07;6.53;;;28.50;19.80;;;;;;5049349;28;20433;-71
2022/06/19 01:45:25;;;;;;;25.50;7.17;;;;;;;;;;5047907;28;20510;-69
2022/06/19 01:47:51;;;;;;;27.97;6.60;;;28.00;21.70;;;;;;5044229;28;20229;-71
2022/06/19 01:50:22;;;;;;;28.30;6.60;;;27.90;23.40;;;;;;5049894;28;21144;-70
2022/06/19 01:52:51;;;;;;;30.93;7.63;;;28.00;20.60;;;;;;5049209;28;20509;-71
2022/06/19 01:55:20;;;;;;;27.60;7.20;;;28.10;20.10;;;;;;5050573;28;20433;-71
2022/06/19 01:57:52;;;;;;;21.27;6.43;;;28.10;21.70;;;;;;5039363;28;20474;-71
2022/06/19 02:00:24;;;;;;;29.53;7.20;;;27.60;23.20;;;;;;5044897;28;20426;-71
2022/06/19 02:03:07;;;;;;;34.33;7.13;;;27.40;23.40;;;;;;5047747;28;20438;-71
2022/06/19 02:05:34;;;;;;;41.40;6.80;;;27.30;21.60;;;;;;5040610;28;20443;-71
2022/06/19 02:08:00;;;;;;;29.37;6.33;;;27.50;22.30;;;;;;5046234;28;20481;-71
2022/06/19 02:10:26;;;;;;;37.10;6.53;;;27.40;23.30;;;;;;5046884;28;20454;-70
2022/06/19 02:12:52;;;;;;;33.23;6.87;;;27.40;22.30;;;;;;5047720;28;20270;-71
2022/06/19 02:15:18;;;;;;;33.17;7.37;;;27.20;23.90;;;;;;5042423;28;20430;-71
2022/06/19 02:17:49;;;;;;;41.40;8.40;;;26.90;23.10;;;;;;5043920;28;20849;-71
2022/06/19 02:20:15;;;;;;;25.73;8.97;;;25.50;25.70;;;;;;5048946;28;20175;-70
2022/06/19 02:22:41;;;;;;;34.97;8.40;;;25.10;26.50;;;;;;5045903;28;20426;-73
2022/06/19 02:25:08;;;;;;;18.37;7.70;;;25.70;26.30;;;;;;5042805;28;20413;-73
2022/06/19 02:27:34;;;;;;;33.80;7.30;;;26.30;26.00;;;;;;5046096;28;20608;-73
2022/06/19 02:30:02;;;;;;;21.13;7.00;;;26.30;25.60;;;;;;5049331;28;20429;-73
2022/06/19 02:32:38;;;;;;;29.03;7.33;;;26.30;26.30;;;;;;5047137;28;20425;-72
2022/06/19 02:35:05;;;;;;;23.70;6.50;;;26.40;25.50;;;;;;5041492;28;20488;-73
2022/06/19 02:37:38;;;;;;;29.30;7.50;;;26.60;25.10;;;;;;5039969;28;20459;-73
2022/06/19 02:40:24;;;;;;;25.83;6.77;;;26.70;23.60;;;;;;5048074;28;20526;-71
2022/06/19 02:42:50;;;;;;;23.40;6.87;;;26.60;23.90;;;;;;5049917;28;20483;-73
2022/06/19 02:45:22;;;;;;;22.00;6.30;;;26.60;23.60;;;;;;5049428;28;20470;-73
2022/06/19 02:47:50;;;;;;;27.00;6.47;;;26.70;22.80;;;;;;5050924;28;20577;-72
2022/06/19 02:50:23;;;;;;;21.93;6.30;;;26.70;24.40;;;;;;5035228;28;20441;-71
2022/06/19 02:52:49;;;;;;;28.23;6.60;;;26.40;24.70;;;;;;5044311;28;20751;-70
2022/06/19 02:55:17;;;;;;;26.83;6.23;;;26.30;25.50;;;;;;5043282;28;20449;-71
2022/06/19 02:57:42;;;;;;;23.47;6.93;;;26.30;25.50;;;;;;5048064;28;20422;-70
2022/06/19 03:00:14;;;;;;;28.67;6.33;;;26.20;25.00;;;;;;5050160;28;20417;-72
2022/06/19 03:02:40;;;;;;;28.60;6.73;;;26.20;26.10;;;;;;5045761;28;20179;-71
2022/06/19 03:05:10;;;;;;;30.43;7.60;;;25.90;26.60;;;;;;5046453;28;20434;-73
2022/06/19 03:07:35;;;;;;;23.20;8.03;;;26.00;26.60;;;;;;5046859;28;20234;-72
2022/06/19 03:10:01;;;;;;;35.43;7.60;;;25.90;26.20;;;;;;5046428;28;20423;-72
2022/06/19 03:12:26;;;;;;;15.53;7.83;;;25.70;27.00;;;;;;5046070;28;20193;-73
2022/06/19 03:14:52;;;;;;;39.97;8.67;;;25.60;27.30;;;;;;5049340;28;20195;-73
2022/06/19 03:17:20;;;;;;;36.37;7.83;;;25.50;27.30;;;;;;5050168;28;20285;-73
2022/06/19 03:19:46;;;;;;;29.73;7.80;;;25.50;28.30;;;;;;5052778;28;20183;-73
2022/06/19 03:22:12;;;;;;;35.30;9.83;;;25.50;29.30;;;;;;5050653;28;20797;-73
2022/06/19 03:24:39;;;;;;;36.43;8.40;;;25.40;28.10;;;;;;5044847;28;20190;-73
2022/06/19 03:27:06;;;;;;;34.00;8.07;;;25.30;29.20;;;;;;5049836;28;20489;-73
2022/06/19 03:29:32;;;;;;;28.23;8.40;;;25.40;29.30;;;;;;5048803;28;20937;-73
2022/06/19 03:31:58;;;;;;;28.50;9.13;;;25.30;28.60;;;;;;5053503;28;20425;-73
2022/06/19 03:34:24;;;;;;;34.43;9.40;;;25.00;29.10;;;;;;5052592;28;20467;-73
2022/06/19 03:36:51;;;;;;;34.87;10.20;;;;;;;;;;5052262;28;20476;-72
2022/06/19 03:39:17;;;;;;;25.67;9.70;;;24.60;29.80;;;;;;5045569;28;20176;-73
2022/06/19 03:41:42;;;;;;;23.57;9.60;;;24.70;30.30;;;;;;5053858;28;20414;-73
2022/06/19 03:44:08;;;;;;;25.53;10.90;;;24.80;30.20;;;;;;5045379;28;20184;-73
2022/06/19 03:46:34;;;;;;;27.50;10.50;;;;;;;;;;5052316;28;20195;-72
2022/06/19 03:49:00;;;;;;;27.23;10.60;;;;;;;;;;5052953;28;20278;-72
2022/06/19 03:51:27;;;;;;;22.33;8.60;;;;;;;;;;5053356;28;20465;-72
2022/06/19 03:53:54;;;;;;;31.90;8.03;;;24.30;30.50;;;;;;5045146;28;20880;-73
2022/06/19 03:56:23;;;;;;;29.73;8.40;;;24.30;30.20;;;;;;5051570;28;20953;-73
2022/06/19 03:58:50;;;;;;;23.00;8.97;;;24.00;30.50;;;;;;5051241;28;20945;-73
2022/06/19 04:01:23;;;;;;;29.97;7.20;;;24.10;30.00;;;;;;5049783;28;20850;-72
2022/06/19 04:03:50;;;;;;;32.50;7.40;;;24.00;30.10;;;;;;5050892;28;20410;-73
2022/06/19 04:06:18;;;;;;;39.73;8.20;;;23.60;31.10;;;;;;5053268;28;20448;-73
2022/06/19 04:08:47;;;;;;;36.73;7.93;;;23.70;31.90;;;;;;5044822;28;20429;-73
2022/06/19 04:11:14;;;;;;;28.97;8.67;;;24.20;32.10;;;;;;5049398;28;20437;-73
2022/06/19 04:13:40;;;;;;;26.03;8.30;;;24.50;31.90;;;;;;5043680;28;20799;-73
2022/06/19 04:16:08;;;;;;;19.83;7.47;;;24.60;32.00;;;;;;5053316;28;20469;-73
2022/06/19 04:18:34;;;;;;;29.87;8.27;;;24.60;31.50;;;;;;5046230;28;20249;-73
2022/06/19 04:21:01;;;;;;;29.47;8.83;;;24.80;32.50;;;;;;5047786;28;20449;-73
2022/06/19 04:23:27;;;;;;;21.93;7.60;;;24.70;31.00;;;;;;5053010;28;20418;-73
2022/06/19 04:25:53;;;;;;;26.77;8.40;;;24.50;31.00;;;;;;5044679;28;20959;-73
2022/06/19 04:28:23;;;;;;;36.27;8.37;;;24.10;31.10;;;;;;5042859;28;20420;-72
2022/06/19 04:30:50;;;;;;;24.63;7.60;;;23.60;32.20;;;;;;5045238;28;20521;-73
2022/06/19 04:33:18;;;;;;;33.43;9.13;;;23.30;33.00;;;;;;5052861;28;20528;-72
2022/06/19 04:35:45;;;;;;;20.83;8.27;;;23.20;33.50;;;;;;5052171;28;20449;-73
2022/06/19 04:38:10;;;;;;;23.63;7.70;;;23.80;33.00;;;;;;5052816;28;20835;-73
2022/06/19 04:40:37;;;;;;;31.23;7.90;;;24.00;31.70;;;;;;5050669;28;20430;-72
2022/06/19 04:43:04;;;;;;;23.63;7.90;;;24.10;32.10;;;;;;5046162;28;20193;-73
2022/06/19 04:45:30;;;;;;;34.67;8.30;;;24.50;32.30;;;;;;5052611;28;20452;-73
2022/06/19 04:47:56;;;;;;;29.70;8.70;;;24.70;32.10;;;;;;5051345;28;20432;-73
2022/06/19 04:50:23;;;;;;;31.50;13.77;;;24.80;31.40;;;;;;5044134;28;20591;-73
2022/06/19 04:52:48;;;;;;;28.67;12.57;;;25.00;32.40;;;;;;5052165;28;20758;-72
2022/06/19 04:55:15;;;;;;;28.83;13.53;;;25.00;33.20;;;;;;5052159;28;20457;-73
2022/06/19 04:57:41;;;;;;;37.77;14.87;;;25.20;33.20;;;;;;5052826;28;20218;-73
2022/06/19 05:00:11;;;;;;;35.93;16.97;;;25.20;32.50;;;;;;5052184;28;20513;-73
2022/06/19 05:02:37;;;;;;;42.50;17.50;;;25.40;32.50;;;;;;5050880;28;20917;-73
2022/06/19 05:05:05;;;;;;;50.70;15.10;;;25.40;31.50;;;;;;5050861;28;20429;-73
2022/06/19 05:07:31;;;;;;;39.30;13.30;;;25.50;31.90;;;;;;5049612;28;20457;-73
2022/06/19 05:09:56;;;;;;;28.07;11.00;;;25.60;30.70;;;;;;5036058;28;20552;-71
2022/06/19 05:12:22;;;;;;;37.43;10.00;;;25.60;30.70;;;;;;5045949;28;20905;-72
2022/06/19 05:14:48;;;;;;;24.90;8.93;;;;;;;;;;5045770;28;20203;-71
2022/06/19 05:17:14;;;;;;;17.67;7.43;;;25.50;29.30;;;;;;5050373;28;20211;-72
2022/06/19 05:19:41;;;;;;;32.23;7.47;;;25.30;30.40;;;;;;5051988;28;20479;-73
2022/06/19 05:22:07;;;;;;;23.87;7.47;;;25.60;30.40;;;;;;5050278;28;20194;-72
2022/06/19 05:24:32;;;;;;;26.10;7.63;;;25.80;33.20;;;;;;5051527;28;20429;-73
2022/06/19 05:26:58;;;;;;;32.07;8.43;;;25.90;30.40;;;;;;5051915;28;20957;-73
2022/06/19 05:29:24;;;;;;;22.43;8.20;;;26.10;29.70;;;;;;5051527;28;20195;-73
2022/06/19 05:31:50;;;;;;;22.03;8.60;;;26.20;28.60;;;;;;5049949;28;20209;-73
2022/06/19 05:34:16;;;;;;;34.40;7.97;;;25.80;28.30;;;;;;5047892;28;20519;-73
2022/06/19 05:36:42;;;;;;;28.73;8.13;;;;;;;;;;5047305;28;20965;-73
2022/06/19 05:39:10;;;;;;;22.23;7.83;;;25.50;29.10;;;;;;5047689;28;20206;-73
2022/06/19 05:41:39;;;;;;;30.93;7.87;;;25.50;29.30;;;;;;5051421;28;20418;-73
2022/06/19 05:44:05;;;;;;;30.87;8.20;;;25.50;29.50;;;;;;5049398;28;20445;-73
2022/06/19 05:46:31;;;;;;;25.93;7.60;;;;;;;;;;5051104;28;20454;-73
2022/06/19 05:48:57;;;;;;;31.30;7.37;;;;;;;;;;5050658;28;20183;-72
2022/06/19 05:51:25;;;;;;;34.97;8.27;;;25.30;30.00;;;;;;5047937;28;20991;-71
2022/06/19 05:53:56;;;;;;;27.90;8.47;;;25.40;30.10;;;;;;5050410;28;20516;-73
2022/06/19 05:56:23;;;;;;;23.73;9.83;;;;;;;;;;5047857;28;20547;-74
2022/06/19 05:58:49;;;;;;;28.33;7.90;;;25.50;29.80;;;;;;5041865;28;20470;-76
2022/06/19 06:01:16;;;;;;;25.57;7.93;;;25.40;30.30;;;;;;5049564;28;20425;-75
2022/06/19 06:03:42;;;;;;;29.60;8.73;;;25.20;30.70;;;;;;5045754;28;20435;-76
2022/06/19 06:06:13;;;;;;;19.13;7.33;;;24.90;31.80;;;;;;5040867;28;20972;-76
2022/06/19 06:08:39;;;;;;;36.23;7.10;;;25.00;31.90;;;;;;5048266;28;20184;-74
2022/06/19 06:11:05;;;;;;;20.30;7.20;;;;;;;;;;5045619;28;20507;-75
2022/06/19 06:13:31;;;;;;;24.33;7.40;;;25.30;31.30;;;;;;5049150;28;20257;-74
2022/06/19 06:15:58;;;;;;;19.10;7.13;;;25.20;31.90;;;;;;5050892;28;21113;-75
2022/06/19 06:18:24;;;;;;;37.90;8.47;;;25.30;31.70;;;;;;5045380;28;20180;-75
2022/06/19 06:20:58;;;;;;;22.37;7.93;;;25.30;31.90;;;;;;5040797;28;20435;-74
2022/06/19 06:23:25;;;;;;;19.57;7.33;;;25.50;31.30;;;;;;5040080;28;20532;-74
2022/06/19 06:26:21;;;;;;;35.33;8.07;;;25.80;30.20;;;;;;5049592;28;20473;-75
2022/06/19 06:28:48;;;;;;;30.17;7.97;;;26.20;29.70;;;;;;5043845;28;20442;-75
2022/06/19 06:31:15;;;;;;;30.93;7.93;;;26.20;29.00;;;;;;5046932;28;20435;-78
2022/06/19 06:33:41;;;;;;;37.70;8.40;;;26.60;28.70;;;;;;5048129;28;20465;-74
2022/06/19 06:36:07;;;;;;;24.07;8.27;;;26.90;28.30;;;;;;5042287;28;20439;-74
2022/06/19 06:38:33;;;;;;;33.57;8.13;;;26.90;27.90;;;;;;5041683;28;20433;-75
2022/06/19 06:40:59;;;;;;;33.33;8.00;;;26.70;27.70;;;;;;5040127;28;20410;-75
2022/06/19 06:43:25;;;;;;;21.97;8.50;;;26.70;27.90;;;;;;5048300;28;20183;-73
2022/06/19 06:45:51;;;;;;;33.30;7.53;;;26.90;26.80;;;;;;5050802;28;20808;-74
2022/06/19 06:48:19;;;;;;;24.83;8.23;;;26.70;27.60;;;;;;5049565;28;20430;-75
2022/06/19 06:50:45;;;;;;;31.93;8.40;;;27.00;26.70;;;;;;5047965;28;20176;-73
2022/06/19 06:53:12;;;;;;;47.90;8.37;;;27.10;26.60;;;;;;5049920;28;20422;-74
2022/06/19 06:55:39;;;;;;;38.70;8.50;;;27.20;27.10;;;;;;5049157;28;20457;-75
2022/06/19 06:58:05;;;;;;;37.13;8.90;;;27.30;27.10;;;;;;5046224;28;20910;-73
2022/06/19 07:00:31;;;;;;;33.70;7.43;;;;;;;;;;5046975;28;20513;-71
2022/06/19 07:02:58;;;;;;;21.23;7.90;;;27.70;27.20;;;;;;5044099;28;20207;-71
2022/06/19 07:05:24;;;;;;;33.17;7.40;;;27.90;26.10;;;;;;5046998;28;20868;-72
2022/06/19 07:07:49;;;;;;;22.47;6.90;;;28.10;25.50;;;;;;5048223;28;20544;-70
2022/06/19 07:10:15;;;;;;;29.40;7.93;;;28.10;25.50;;;;;;5038893;28;20187;-70
2022/06/19 07:12:41;;;;;;;27.83;7.60;;;;;;;;;;5042785;28;20194;-70
2022/06/19 07:15:09;;;;;;;38.80;7.90;;;28.40;25.20;;;;;;5041376;28;20195;-70
2022/06/19 07:17:35;;;;;;;37.27;7.90;;;28.70;25.60;;;;;;5045859;28;20485;-70
2022/06/19 07:20:01;;;;;;;30.87;8.20;;;28.40;26.60;;;;;;5050657;28;20452;-70
2022/06/19 07:22:28;;;;;;;21.67;7.53;;;28.70;26.40;;;;;;5045607;28;20449;-70
2022/06/19 07:24:53;;;;;;;32.17;8.00;;;28.60;27.00;;;;;;5044133;28;20517;-70
2022/06/19 07:27:19;;;;;;;38.30;7.97;;;;;;;;;;5043026;28;20533;-69
2022/06/19 07:29:45;;;;;;;35.43;8.30;;;28.90;26.60;;;;;;5041329;28;20183;-71
2022/06/19 07:32:12;;;;;;;48.30;7.30;;;28.60;28.00;;;;;;5046720;28;20438;-70
2022/06/19 07:34:39;;;;;;;23.00;7.50;;;28.80;27.80;;;;;;5043247;28;20453;-70
2022/06/19 07:37:05;;;;;;;27.97;8.60;;;28.60;27.70;;;;;;5046938;28;20543;-70
2022/06/19 07:39:32;;;;;;;30.00;8.47;;;29.10;28.10;;;;;;5042938;28;20434;-71
2022/06/19 07:41:59;;;;;;;27.70;8.27;;;29.40;26.80;;;;;;5040230;28;20423;-71
2022/06/19 07:44:25;;;;;;;28.77;10.37;;;29.30;27.30;;;;;;5045029;28;20426;-72
2022/06/19 07:52:18;;;;;;;34.70;10.70;;;30.10;26.80;;;;;;5043964;28;20441;-72
2022/06/19 07:54:44;;;;;;;25.17;9.03;;;29.80;26.60;;;;;;5049689;28;20969;-71
2022/06/19 07:57:10;;;;;;;50.33;11.30;;;29.90;26.40;;;;;;5047661;28;20282;-70
2022/06/19 07:59:35;;;;;;;37.27;9.33;;;30.40;25.70;;;;;;5047905;28;20176;-72
2022/06/19 08:02:01;;;;;;;19.57;9.07;;;30.70;25.40;;;;;;5043707;28;20180;-72
2022/06/19 08:04:27;;;;;;;40.17;9.67;;;31.00;25.60;;;;;;5043063;28;20233;-72
2022/06/19 08:06:52;;;;;;;33.37;9.83;;;;;;;;;;5048319;28;20199;-71
2022/06/19 08:09:18;;;;;;;27.40;9.17;;;31.20;25.70;;;;;;5049571;28;20263;-70
2022/06/19 08:11:44;;;;;;;32.07;9.93;;;31.40;25.20;;;;;;5039812;28;20439;-71
2022/06/19 08:14:09;;;;;;;43.17;10.70;;;30.80;25.20;;;;;;5043821;28;20208;-71
2022/06/19 08:16:35;;;;;;;40.77;10.23;;;30.30;26.10;;;;;;5047293;28;20222;-71
2022/06/19 08:19:01;;;;;;;38.23;10.17;;;30.70;25.90;;;;;;5046142;28;20176;-71
2022/06/19 08:21:27;;;;;;;31.70;9.07;;;;;;;;;;5041393;28;20445;-71
2022/06/19 08:23:53;;;;;;;28.70;9.57;;;31.00;25.60;;;;;;5048154;28;20198;-70
2022/06/19 08:26:19;;;;;;;25.20;8.63;;;;;;;;;;5042326;28;20455;-72
2022/06/19 08:29:00;;;;;;;21.97;9.37;;;;;;;;;;5043759;28;20183;-70
2022/06/19 08:31:27;;;;;;;26.90;9.40;;;30.20;27.50;;;;;;5042273;28;20922;-70
2022/06/19 08:33:53;;;;;;;29.43;9.50;;;;;;;;;;5039954;28;20988;-70
2022/06/19 08:36:20;;;;;;;34.27;10.40;;;30.00;28.10;;;;;;5047877;28;20475;-70
2022/06/19 08:38:54;;;;;;;38.17;10.67;;;30.30;27.40;;;;;;5048845;28;20992;-71
2022/06/19 08:42:06;;;;;;;33.00;11.80;;;30.30;27.50;;;;;;5041270;28;20450;-70
2022/06/19 08:44:37;;;;;;;29.57;10.33;;;30.80;26.80;;;;;;5046212;28;20755;-70
2022/06/19 08:47:12;;;;;;;32.00;10.33;;;30.60;26.40;;;;;;5052200;28;20960;-71
2022/06/19 08:50:15;;;;;;;27.87;9.67;;;31.00;26.10;;;;;;5044791;28;20508;-71
2022/06/19 08:53:05;;;;;;;26.30;10.63;;;31.30;25.50;;;;;;5052498;28;20428;-71
2022/06/19 08:55:49;;;;;;;32.90;10.37;;;31.30;24.40;;;;;;5043608;28;20469;-71
2022/06/19 08:58:29;;;;;;;35.23;11.60;;;31.20;23.90;;;;;;5052175;28;20418;-71
2022/06/19 09:01:36;;;;;;;27.33;11.07;;;31.20;23.80;;;;;;5051739;28;20413;-71
2022/06/19 09:07:12;;;;;;;30.23;11.63;;;;;;;;;;5048101;28;20853;-70
2022/06/19 09:09:47;;;;;;;30.93;10.80;;;31.40;23.10;;;;;;5052275;28;20446;-70
2022/06/19 09:12:28;;;;;;;31.67;11.43;;;31.40;23.20;;;;;;5051647;28;20487;-70
2022/06/19 09:15:11;;;;;;;24.97;11.40;;;31.90;21.80;;;;;;5051405;28;20457;-71
2022/06/19 09:18:05;;;;;;;24.53;11.90;;;31.90;21.90;;;;;;5051993;28;20437;-71
2022/06/19 09:20:45;;;;;;;35.77;11.97;;;31.90;21.50;;;;;;5051997;28;20430;-71
2022/06/19 09:23:30;;;;;;;31.17;12.40;;;31.50;21.40;;;;;;5043583;28;20456;-71
2022/06/19 09:25:56;;;;;;;25.33;12.20;;;;;;;;;;5050889;28;20526;-71
2022/06/19 09:28:55;;;;;;;37.43;13.27;;;31.30;21.10;;;;;;5051496;28;20866;-74
2022/06/19 09:31:31;;;;;;;38.70;13.10;;;31.90;20.90;;;;;;5048529;28;20491;-73
2022/06/19 09:34:14;;;;;;;32.83;13.70;;;32.00;21.00;;;;;;5047100;28;20462;-73
2022/06/19 09:36:56;;;;;;;28.17;13.60;;;32.00;20.60;;;;;;5050361;28;20448;-73
2022/06/19 09:39:27;;;;;;;37.10;12.63;;;31.90;21.70;;;;;;5051841;28;20437;-71
2022/06/19 09:41:56;;;;;;;27.77;12.90;;;32.00;20.50;;;;;;5043625;28;20925;-70
2022/06/19 09:44:37;;;;;;;40.83;13.73;;;32.10;20.40;;;;;;5043344;28;20836;-71
2022/06/19 09:47:27;;;;;;;34.17;12.60;;;32.00;19.80;;;;;;5044742;28;20446;-72
2022/06/19 09:50:20;;;;;;;36.17;12.97;;;32.70;19.80;;;;;;5051453;28;20657;-72
2022/06/19 09:53:06;;;;;;;30.10;12.73;;;32.70;19.60;;;;;;5050979;28;20457;-72
2022/06/19 09:55:40;;;;;;;31.30;13.47;;;33.20;19.20;;;;;;5051353;28;20556;-72
2022/06/19 09:58:21;;;;;;;28.03;13.17;;;32.80;19.60;;;;;;5045211;28;20521;-73
2022/06/19 10:00:51;;;;;;;35.57;14.00;;;32.90;20.50;;;;;;5049403;28;20897;-72
2022/06/19 10:03:19;;;;;;;28.70;13.10;;;32.60;18.40;;;;;;5043230;28;20422;-73
2022/06/19 10:05:56;;;;;;;33.70;13.80;;;32.70;19.30;;;;;;5042722;28;20529;-72
2022/06/19 10:08:22;;;;;;;26.40;13.83;;;;;;;;;;5051122;28;20413;-72
2022/06/19 10:10:58;;;;;;;30.00;13.03;;;32.70;19.10;;;;;;5049988;28;20422;-73
2022/06/19 10:13:45;;;;;;;28.73;13.17;;;33.30;18.40;;;;;;5045107;28;20421;-73
2022/06/19 10:16:27;;;;;;;31.40;14.73;;;33.30;19.00;;;;;;5051471;28;20454;-73
2022/06/19 10:18:54;;;;;;;28.50;14.17;;;33.50;17.60;;;;;;5042519;28;20518;-73
2022/06/19 10:24:48;;;;;;;31.63;13.30;;;33.20;17.50;;;;;;5042668;28;20472;-72
2022/06/19 10:27:37;;;;;;;28.77;13.00;;;33.30;18.20;;;;;;5042863;28;20625;-73
2022/06/19 10:30:06;;;;;;;33.03;14.37;;;33.80;17.70;;;;;;5048899;28;20458;-73
2022/06/19 10:32:50;;;;;;;28.23;14.23;;;33.60;16.90;;;;;;5045121;28;20425;-72
2022/06/19 10:35:16;;;;;;;30.10;13.87;;;;;;;;;;5047475;28;20847;-73
2022/06/19 10:38:12;;;;;;;27.17;13.93;;;33.20;18.00;;;;;;5046175;28;20501;-73
2022/06/19 10:40:46;;;;;;;40.93;14.00;;;33.90;17.90;;;;;;5045778;28;20912;-73
2022/06/19 10:43:23;;;;;;;40.13;14.20;;;34.10;16.50;;;;;;5050704;28;20418;-72
2022/06/19 10:45:56;;;;;;;29.03;13.57;;;33.60;16.90;;;;;;5050545;28;20441;-72
2022/06/19 10:48:27;;;;;;;43.47;14.10;;;33.80;16.50;;;;;;5042563;28;20418;-72
2022/06/19 10:51:05;;;;;;;33.40;14.17;;;33.40;16.40;;;;;;5050612;28;20933;-72
2022/06/19 10:53:45;;;;;;;27.90;14.27;;;33.40;16.70;;;;;;5043013;28;20846;-72
2022/06/19 10:56:40;;;;;;;34.27;13.70;;;33.70;15.80;;;;;;5042567;28;20531;-72
2022/06/19 10:59:06;;;;;;;33.63;13.33;;;33.70;15.90;;;;;;5042255;28;20431;-72
2022/06/19 11:04:34;;;;;;;22.00;13.07;;;34.50;15.60;;;;;;5050117;28;20441;-72
2022/06/19 11:07:09;;;;;;;27.80;12.93;;;34.10;15.70;;;;;;5043562;28;20485;-72
2022/06/19 11:09:45;;;;;;;34.67;13.80;;;34.60;14.80;;;;;;5042577;28;20956;-72
2022/06/19 11:12:40;;;;;;;32.87;13.60;;;34.80;13.90;;;;;;5050136;28;20862;-73
2022/06/19 11:15:09;;;;;;;26.60;12.27;;;34.90;14.60;;;;;;5042746;28;20903;-73
2022/06/19 11:17:36;;;;;;;26.50;12.93;;;35.00;14.80;;;;;;5050098;28;20454;-72
2022/06/19 11:20:20;;;;;;;41.97;12.07;;;34.90;12.60;;;;;;5050218;28;20418;-73
2022/06/19 11:22:48;;;;;;;32.53;11.83;;;34.40;13.40;;;;;;5043478;28;20507;-74
2022/06/19 11:25:20;;;;;;;31.00;12.67;;;34.50;13.90;;;;;;5050272;28;20422;-73
2022/06/19 11:28:00;;;;;;;40.40;13.17;;;34.70;14.00;;;;;;5046790;28;20423;-74
2022/06/19 11:30:47;;;;;;;38.83;11.53;;;35.40;13.90;;;;;;5047818;28;20426;-73
2022/06/19 11:33:16;;;;;;;34.17;12.50;;;36.40;12.50;;;;;;5046413;28;20426;-74
2022/06/19 11:35:48;;;;;;;35.23;12.20;;;35.80;11.70;;;;;;5053668;28;20446;-73
2022/06/19 11:38:30;;;;;;;29.70;12.97;;;36.60;10.40;;;;;;5054414;28;20429;-73
2022/06/19 11:40:56;;;;;;;34.40;10.37;;;;;;;;;;5047548;28;20543;-73
2022/06/19 11:43:32;;;;;;;25.80;10.67;;;35.90;10.90;;;;;;5046005;28;20460;-73
2022/06/19 11:46:06;;;;;;;38.27;11.80;;;35.20;10.80;;;;;;5054013;28;20944;-73
2022/06/19 11:48:32;;;;;;;32.00;10.00;;;35.50;11.10;;;;;;5053121;28;20426;-73
2022/06/19 11:50:58;;;;;;;30.63;11.13;;;35.60;10.10;;;;;;5042681;28;20464;-73
2022/06/19 11:53:39;;;;;;;33.33;11.07;;;36.30;9.80;;;;;;5042454;28;20263;-72
2022/06/19 11:56:32;;;;;;;40.37;10.80;;;36.50;10.40;;;;;;5053739;28;20560;-73
2022/06/19 11:59:01;;;;;;;34.57;10.80;;;36.80;7.80;;;;;;5054663;28;20552;-72
2022/06/19 12:01:42;;;;;;;25.17;10.50;;;35.60;9.80;;;;;;5053687;28;20446;-73
2022/06/19 12:04:23;;;;;;;28.67;10.17;;;35.50;10.70;;;;;;5047542;28;20422;-73
2022/06/19 12:06:52;;;;;;;28.33;9.93;;;36.50;9.80;;;;;;5042960;28;20482;-72
2022/06/19 12:09:37;;;;;;;31.53;8.73;;;36.20;8.20;;;;;;5053459;28;20418;-73
2022/06/19 12:12:08;;;;;;;29.90;10.00;;;35.90;8.10;;;;;;5045526;28;20437;-73
2022/06/19 12:14:54;;;;;;;27.07;8.00;;;36.00;8.80;;;;;;5053311;28;20582;-72
2022/06/19 12:17:25;;;;;;;23.53;8.47;;;36.30;9.20;;;;;;5047959;28;20537;-73
2022/06/19 12:20:06;;;;;;;26.33;9.13;;;36.40;9.10;;;;;;5053128;28;20426;-73
2022/06/19 12:22:55;;;;;;;27.77;8.30;;;37.00;8.00;;;;;;5045611;28;20415;-73
2022/06/19 12:25:35;;;;;;;32.33;9.10;;;37.40;6.80;;;;;;5047851;28;20414;-73
2022/06/19 12:28:38;;;;;;;40.93;8.80;;;37.20;8.00;;;;;;5052597;28;20408;-72
2022/06/19 12:31:18;;;;;;;22.00;8.07;;;36.90;7.90;;;;;;5045176;28;20433;-73
2022/06/19 12:33:52;;;;;;;33.13;9.23;;;37.50;7.80;;;;;;5052683;28;20504;-73
2022/06/19 12:36:26;;;;;;;32.90;9.67;;;38.10;6.70;;;;;;5053009;28;20857;-73
2022/06/19 12:38:52;;;;;;;23.73;9.90;;;38.20;6.70;;;;;;5044532;28;20441;-73
2022/06/19 12:41:26;;;;;;;23.60;8.53;;;38.20;7.00;;;;;;5052819;28;20425;-73
2022/06/19 12:44:16;;;;;;;21.97;8.97;;;37.40;7.30;;;;;;5052314;28;20180;-73
2022/06/19 12:46:54;;;;;;;28.77;8.90;;;37.20;7.60;;;;;;5052814;28;20440;-72
2022/06/19 12:49:49;;;;;;;25.83;7.90;;;36.60;7.80;;;;;;5046239;28;20414;-72
2022/06/19 12:52:33;;;;;;;32.77;9.13;;;36.70;8.20;;;;;;5048379;28;20982;-72
2022/06/19 12:55:26;;;;;;;35.60;9.27;;;36.70;8.00;;;;;;5042858;28;20466;-74
2022/06/19 12:58:10;;;;;;;25.80;8.40;;;37.90;8.80;;;;;;5052592;28;20789;-73
2022/06/19 13:00:45;;;;;;;27.40;9.00;;;38.00;7.70;;;;;;5052626;28;20959;-73
2022/06/19 13:03:13;;;;;;;22.40;8.00;;;38.20;7.10;;;;;;5044060;28;20959;-73
2022/06/19 13:06:24;;;;;;;20.37;8.40;;;36.90;7.40;;;;;;5052524;28;20444;-73
2022/06/19 13:09:09;;;;;;;18.07;8.37;;;36.70;7.30;;;;;;5044500;28;20534;-72
2022/06/19 13:11:56;;;;;;;28.40;8.50;;;35.80;8.10;;;;;;5052362;28;20425;-73
2022/06/19 13:14:46;;;;;;;23.10;7.70;;;35.70;8.70;;;;;;5047229;28;20953;-72
2022/06/19 13:17:17;;;;;;;22.73;8.40;;;36.20;7.50;;;;;;5052076;28;20836;-73
2022/06/19 13:19:42;;;;;;;29.47;9.07;;;36.10;7.90;;;;;;5052364;28;20509;-73
2022/06/19 13:22:17;;;;;;;21.90;8.03;;;36.40;7.10;;;;;;5041970;28;20518;-72